Time;durP1;ratioP1;P1;durP2;ratioP2;P2;SDS_P1;SDS_P2;PMS_P1;PMS_P2;Temp;Humidity;BMP_temperature;BMP_pressure;BME280_temperature;BME280_humidity;BME280_pressure;Samples;Min_cycle;Max_cycle;Signal;HPM_P1;HPM_P2
2022/07/30 00:01:10;;;;;;;2.33;1.70;;;;;;;;;;5039737;28;20041;-87
2022/07/30 00:03:36;;;;;;;2.50;1.80;;;;;;;;;;5039287;28;20120;-87
2022/07/30 00:06:01;;;;;;;3.22;1.75;;;;;;;;;;5038194;28;20055;-87
2022/07/30 00:08:27;;;;;;;2.40;1.40;;;;;;;;;;5020604;28;20054;-86
2022/07/30 00:10:56;;;;;;;3.17;1.60;;;;;;;;;;5039315;28;20044;-86
2022/07/30 00:13:22;;;;;;;3.38;1.60;;;;;;;;;;5038196;28;20033;-86
2022/07/30 00:15:47;;;;;;;4.40;1.77;;;;;;;;;;5038618;28;20064;-85
2022/07/30 00:18:13;;;;;;;3.15;1.42;;;;;;;;;;5040766;28;20064;-86
2022/07/30 00:20:39;;;;;;;2.03;1.55;;;;;;;;;;5043100;28;20037;-86
2022/07/30 00:23:05;;;;;;;3.08;1.60;;;;;;;;;;5042379;28;20125;-86
2022/07/30 00:25:31;;;;;;;2.03;1.60;;;;;;;;;;5042173;28;20061;-86
2022/07/30 00:27:56;;;;;;;2.20;1.70;;;;;;;;;;5042958;28;20038;-87
2022/07/30 00:30:22;;;;;;;3.42;1.75;;;;;;;;;;5042699;28;20025;-86
2022/07/30 00:32:47;;;;;;;2.03;1.50;;;;;;;;;;5025581;28;20653;-86
2022/07/30 00:35:13;;;;;;;1.95;1.48;;;;;;;;;;5024375;28;20036;-86
2022/07/30 00:37:39;;;;;;;2.20;1.60;;;;;;;;;;5042949;28;20172;-86
2022/07/30 00:40:07;;;;;;;2.55;1.50;;;;;;;;;;5042677;28;20037;-86
2022/07/30 00:42:45;;;;;;;1.58;1.40;;;;;;;;;;5042010;28;20541;-86
2022/07/30 00:45:13;;;;;;;2.47;1.50;;;;;;;;;;5024426;28;20045;-87
2022/07/30 00:47:39;;;;;;;1.80;1.50;;;;;;;;;;5024509;28;20075;-86
2022/07/30 00:50:07;;;;;;;1.80;1.50;;;;;;;;;;5024947;28;20038;-87
2022/07/30 00:52:34;;;;;;;2.10;1.52;;;;;;;;;;5041709;28;20029;-86
2022/07/30 00:55:00;;;;;;;4.65;1.50;;;;;;;;;;5024234;28;20033;-86
2022/07/30 00:57:26;;;;;;;2.40;1.60;;;;;;;;;;5025141;28;20041;-87
2022/07/30 00:59:52;;;;;;;3.10;1.60;;;;;;;;;;5041757;28;20037;-86
2022/07/30 01:02:18;;;;;;;3.78;1.70;;;;;;;;;;5006960;28;20098;-87
2022/07/30 01:04:43;;;;;;;2.70;1.52;;;;;;;;;;5041042;28;20029;-86
2022/07/30 01:07:09;;;;;;;2.35;1.70;;;;;;;;;;5023750;28;20068;-86
2022/07/30 01:09:36;;;;;;;4.40;1.70;;;;;;;;;;5039837;28;20041;-86
2022/07/30 01:12:02;;;;;;;3.35;1.70;;;;;;;;;;5041599;28;20037;-86
2022/07/30 01:14:28;;;;;;;3.20;1.50;;;;;;;;;;5040933;28;20056;-86
2022/07/30 01:16:54;;;;;;;3.38;1.30;;;;;;;;;;5022720;28;20418;-86
2022/07/30 01:22:29;;;;;;;3.58;1.60;;;;;;;;;;5024138;28;20042;-87
2022/07/30 01:25:00;;;;;;;4.32;1.48;;;;;;;;;;5041094;28;20037;-86
2022/07/30 01:27:28;;;;;;;4.40;1.60;;;;;;;;;;5007434;28;20038;-87
2022/07/30 01:29:56;;;;;;;2.63;1.63;;;;;;;;;;5023707;28;20120;-85
2022/07/30 01:32:23;;;;;;;3.33;1.50;;;;;;;;;;5006506;28;20037;-86
2022/07/30 01:34:51;;;;;;;2.30;1.50;;;;;;;;;;5022245;28;20118;-85
2022/07/30 01:37:17;;;;;;;4.55;1.70;;;;;;;;;;5023406;28;20044;-85
2022/07/30 01:39:44;;;;;;;3.28;1.50;;;;;;;;;;5023051;28;20040;-86
2022/07/30 01:42:12;;;;;;;3.28;1.60;;;;;;;;;;5041471;28;20037;-86
2022/07/30 01:44:39;;;;;;;2.97;1.90;;;;;;;;;;5023140;28;20040;-88
2022/07/30 01:47:07;;;;;;;2.22;1.30;;;;;;;;;;5023482;28;20033;-88
2022/07/30 01:49:35;;;;;;;1.92;1.60;;;;;;;;;;5022883;28;20065;-87
2022/07/30 01:52:02;;;;;;;2.28;1.58;;;;;;;;;;5022526;28;20029;-87
2022/07/30 01:54:29;;;;;;;2.70;1.60;;;;;;;;;;5021795;28;20121;-87
2022/07/30 01:56:57;;;;;;;2.38;1.42;;;;;;;;;;5006472;28;20048;-87
2022/07/30 01:59:25;;;;;;;2.90;1.48;;;;;;;;;;5022349;28;20036;-86
2022/07/30 02:01:51;;;;;;;2.00;1.30;;;;;;;;;;5006430;28;20228;-87
2022/07/30 02:04:17;;;;;;;2.28;1.50;;;;;;;;;;5022005;28;20064;-88
2022/07/30 02:06:57;;;;;;;3.00;1.50;;;;;;;;;;5039370;28;20065;-87
2022/07/30 02:09:29;;;;;;;2.35;1.40;;;;;;;;;;5020991;28;20033;-87
2022/07/30 02:14:52;;;;;;;1.52;1.27;;;;;;;;;;5021501;28;20025;-87
2022/07/30 02:17:23;;;;;;;2.28;1.58;;;;;;;;;;5039451;28;20076;-88
2022/07/30 02:19:53;;;;;;;1.95;1.30;;;;;;;;;;5021502;28;20029;-89
2022/07/30 02:22:21;;;;;;;3.05;1.30;;;;;;;;;;5022635;28;20040;-88
2022/07/30 02:24:48;;;;;;;2.67;1.48;;;;;;;;;;5020901;28;20060;-87
2022/07/30 02:27:21;;;;;;;2.40;1.60;;;;;;;;;;5006677;28;20029;-84
2022/07/30 02:29:47;;;;;;;2.60;1.70;;;;;;;;;;5017966;28;20111;-84
2022/07/30 02:32:17;;;;;;;2.70;1.40;;;;;;;;;;5017958;28;20418;-85
2022/07/30 02:34:47;;;;;;;2.22;1.40;;;;;;;;;;5017609;28;20064;-85
2022/07/30 02:37:14;;;;;;;2.63;1.38;;;;;;;;;;5018262;28;20025;-84
2022/07/30 02:39:42;;;;;;;1.52;1.30;;;;;;;;;;5017646;28;20068;-84
2022/07/30 02:42:11;;;;;;;5.97;1.25;;;;;;;;;;5018132;28;20017;-85
2022/07/30 02:44:41;;;;;;;2.22;1.50;;;;;;;;;;5017922;28;20517;-85
2022/07/30 02:47:08;;;;;;;1.60;1.30;;;;;;;;;;5001843;28;20029;-85
2022/07/30 02:49:35;;;;;;;2.70;1.38;;;;;;;;;;5034890;28;20482;-85
2022/07/30 02:52:04;;;;;;;1.80;1.30;;;;;;;;;;5018095;28;20167;-85
2022/07/30 02:54:31;;;;;;;3.88;1.40;;;;;;;;;;5017291;28;20044;-85
2022/07/30 02:56:59;;;;;;;2.47;1.40;;;;;;;;;;5017954;28;20038;-85
2022/07/30 02:59:26;;;;;;;2.00;1.40;;;;;;;;;;5017576;28;20387;-84
2022/07/30 03:01:54;;;;;;;4.03;1.50;;;;;;;;;;5017956;28;20041;-84
2022/07/30 03:04:21;;;;;;;2.00;1.40;;;;;;;;;;5017176;28;20117;-85
2022/07/30 03:06:48;;;;;;;2.33;1.60;;;;;;;;;;5017630;28;20041;-85
2022/07/30 03:09:16;;;;;;;2.95;1.23;;;;;;;;;;5016631;28;20061;-84
2022/07/30 03:11:42;;;;;;;2.75;1.30;;;;;;;;;;5017423;28;20474;-84
2022/07/30 03:14:09;;;;;;;2.45;1.40;;;;;;;;;;5035010;28;20457;-84
2022/07/30 03:16:37;;;;;;;2.83;1.50;;;;;;;;;;5016863;28;20036;-85
2022/07/30 03:19:06;;;;;;;1.70;1.25;;;;;;;;;;5001453;28;20061;-85
2022/07/30 03:21:34;;;;;;;2.88;1.60;;;;;;;;;;5018116;28;20498;-85
2022/07/30 03:24:02;;;;;;;2.80;1.42;;;;;;;;;;5019701;28;20105;-84
2022/07/30 03:26:29;;;;;;;2.10;1.42;;;;;;;;;;5014867;28;20097;-85
2022/07/30 03:28:55;;;;;;;2.50;1.50;;;;;;;;;;5027292;28;20029;-85
2022/07/30 03:31:21;;;;;;;2.03;1.40;;;;;;;;;;5045846;28;20042;-85
2022/07/30 03:33:48;;;;;;;2.22;1.33;;;;;;;;;;5031695;28;20116;-85
2022/07/30 03:36:14;;;;;;;1.95;1.48;;;;;;;;;;5038103;28;20040;-84
2022/07/30 03:38:41;;;;;;;3.00;1.40;;;;;;;;;;5029924;28;20069;-85
2022/07/30 03:41:09;;;;;;;1.80;1.40;;;;;;;;;;5022027;28;20041;-85
2022/07/30 03:43:36;;;;;;;1.77;1.38;;;;;;;;;;5017811;28;20033;-85
2022/07/30 03:46:04;;;;;;;3.97;1.65;;;;;;;;;;5017344;28;20513;-85
2022/07/30 03:48:34;;;;;;;3.90;1.60;;;;;;;;;;5017524;28;20476;-84
2022/07/30 03:51:06;;;;;;;2.10;1.60;;;;;;;;;;5017121;28;20029;-85
2022/07/30 03:53:32;;;;;;;2.92;1.77;;;;;;;;;;5020178;28;20179;-85
2022/07/30 03:56:17;;;;;;;3.10;1.50;;;;;;;;;;5038335;28;20039;-84
2022/07/30 03:58:54;;;;;;;2.65;1.50;;;;;;;;;;5022245;28;20034;-85
2022/07/30 04:01:25;;;;;;;2.00;1.40;;;;;;;;;;5020982;28;20044;-85
2022/07/30 04:03:54;;;;;;;2.38;1.60;;;;;;;;;;5021234;28;20041;-85
2022/07/30 04:06:21;;;;;;;3.33;1.55;;;;;;;;;;5021110;28;20057;-85
2022/07/30 04:08:46;;;;;;;2.10;1.60;;;;;;;;;;5020151;28;20033;-85
2022/07/30 04:11:12;;;;;;;1.70;1.60;;;;;;;;;;5037511;28;20046;-84
2022/07/30 04:13:37;;;;;;;2.58;1.60;;;;;;;;;;5038916;28;20033;-85
2022/07/30 04:16:22;;;;;;;5.28;1.85;;;;;;;;;;5020099;28;20033;-85
2022/07/30 04:18:51;;;;;;;2.92;1.60;;;;;;;;;;5022710;28;20033;-85
2022/07/30 04:21:19;;;;;;;2.20;1.63;;;;;;;;;;5004419;28;20053;-85
2022/07/30 04:23:47;;;;;;;2.83;1.70;;;;;;;;;;5020045;28;20025;-85
2022/07/30 04:26:14;;;;;;;2.92;1.90;;;;;;;;;;5003773;28;20155;-85
2022/07/30 04:28:40;;;;;;;5.75;1.75;;;;;;;;;;5038124;28;20116;-85
2022/07/30 04:31:06;;;;;;;3.80;1.77;;;;;;;;;;5020456;28;20454;-84
2022/07/30 04:33:32;;;;;;;2.53;1.73;;;;;;;;;;5020572;28;20121;-85
2022/07/30 04:36:07;;;;;;;4.50;2.00;;;;;;;;;;5020098;28;20045;-84
2022/07/30 04:38:36;;;;;;;2.42;1.70;;;;;;;;;;5037924;28;20033;-85
2022/07/30 04:41:02;;;;;;;2.60;1.77;;;;;;;;;;5020329;28;20033;-84
2022/07/30 04:43:34;;;;;;;4.10;1.90;;;;;;;;;;5020248;28;20029;-85
2022/07/30 04:46:00;;;;;;;2.30;1.70;;;;;;;;;;5018916;28;20040;-84
2022/07/30 04:48:27;;;;;;;2.97;1.80;;;;;;;;;;5036797;28;20517;-84
2022/07/30 04:51:11;;;;;;;4.45;1.50;;;;;;;;;;5038190;28;20414;-85
2022/07/30 04:53:37;;;;;;;2.97;1.80;;;;;;;;;;5020534;28;20034;-85
2022/07/30 04:56:04;;;;;;;1.80;1.58;;;;;;;;;;5019820;28;20129;-85
2022/07/30 04:58:32;;;;;;;2.25;1.70;;;;;;;;;;5020020;28;20034;-84
2022/07/30 05:00:59;;;;;;;2.95;1.70;;;;;;;;;;5038266;28;20045;-85
2022/07/30 05:03:29;;;;;;;2.42;1.75;;;;;;;;;;5019687;28;20061;-85
2022/07/30 05:05:56;;;;;;;7.93;1.70;;;;;;;;;;5019326;28;20033;-85
2022/07/30 05:08:25;;;;;;;2.63;1.85;;;;;;;;;;5020203;28;20026;-84
2022/07/30 05:10:51;;;;;;;2.97;1.85;;;;;;;;;;5003380;28;20026;-85
2022/07/30 05:13:17;;;;;;;3.03;1.80;;;;;;;;;;5020128;28;20052;-84
2022/07/30 05:15:45;;;;;;;3.58;1.80;;;;;;;;;;5019290;28;20033;-85
2022/07/30 05:18:12;;;;;;;2.85;1.80;;;;;;;;;;5003872;28;20120;-84
2022/07/30 05:20:41;;;;;;;2.25;1.73;;;;;;;;;;5019488;28;20115;-85
2022/07/30 05:23:14;;;;;;;2.50;1.90;;;;;;;;;;5020165;28;20043;-85
2022/07/30 05:25:43;;;;;;;2.95;1.90;;;;;;;;;;5018765;28;20061;-84
2022/07/30 05:28:25;;;;;;;3.88;1.80;;;;;;;;;;5019538;28;20041;-85
2022/07/30 05:30:53;;;;;;;2.58;1.92;;;;;;;;;;5019334;28;20033;-85
2022/07/30 05:33:22;;;;;;;2.85;1.95;;;;;;;;;;5019659;28;20030;-85
2022/07/30 05:35:49;;;;;;;3.10;1.80;;;;;;;;;;5018392;28;20091;-85
2022/07/30 05:38:16;;;;;;;2.97;1.67;;;;;;;;;;5001953;28;20116;-85
2022/07/30 05:41:04;;;;;;;2.47;1.80;;;;;;;;;;5006380;28;20025;-84
2022/07/30 05:43:48;;;;;;;4.95;2.40;;;;;;;;;;5036962;28;20559;-84
2022/07/30 05:46:14;;;;;;;4.30;1.95;;;;;;;;;;5017696;28;20037;-84
2022/07/30 05:48:40;;;;;;;2.60;1.70;;;;;;;;;;5019055;28;20537;-84
2022/07/30 05:51:05;;;;;;;4.35;1.90;;;;;;;;;;5019172;28;20102;-84
2022/07/30 05:53:31;;;;;;;2.10;1.80;;;;;;;;;;5019103;28;20090;-84
2022/07/30 05:56:17;;;;;;;2.90;1.80;;;;;;;;;;5020448;28;20045;-84
2022/07/30 05:59:08;;;;;;;3.17;1.60;;;;;;;;;;5012186;28;20038;-84
2022/07/30 06:02:01;;;;;;;2.40;1.60;;;;;;;;;;5033335;28;20116;-84
2022/07/30 06:04:36;;;;;;;3.58;1.80;;;;;;;;;;5017883;28;20026;-84
2022/07/30 06:07:04;;;;;;;2.17;1.80;;;;;;;;;;5018216;28;20041;-84
2022/07/30 06:09:30;;;;;;;3.05;1.70;;;;;;;;;;5017057;28;20025;-85
2022/07/30 06:11:55;;;;;;;3.40;1.60;;;;;;;;;;5019148;28;20044;-84
2022/07/30 06:14:22;;;;;;;4.00;1.70;;;;;;;;;;5018474;28;20103;-83
2022/07/30 06:16:48;;;;;;;2.95;1.58;;;;;;;;;;5019118;28;20033;-85
2022/07/30 06:19:13;;;;;;;4.15;1.70;;;;;;;;;;5018682;28;20409;-84
2022/07/30 06:21:43;;;;;;;2.90;1.60;;;;;;;;;;5018144;28;20391;-85
2022/07/30 06:24:12;;;;;;;2.55;1.52;;;;;;;;;;5023721;28;20029;-85
2022/07/30 06:26:55;;;;;;;2.25;1.60;;;;;;;;;;5018431;28;20577;-85
2022/07/30 06:29:21;;;;;;;2.50;1.50;;;;;;;;;;5017091;28;20061;-85
2022/07/30 06:31:46;;;;;;;4.15;1.70;;;;;;;;;;5018826;28;20037;-85
2022/07/30 06:34:12;;;;;;;3.10;1.45;;;;;;;;;;5019309;28;20068;-85
2022/07/30 06:36:41;;;;;;;3.15;1.70;;;;;;;;;;5019107;28;20044;-85
2022/07/30 06:39:16;;;;;;;1.70;1.48;;;;;;;;;;5018592;28;20029;-85
2022/07/30 06:42:02;;;;;;;1.90;1.55;;;;;;;;;;5014719;28;20429;-85
2022/07/30 06:44:47;;;;;;;3.95;1.55;;;;;;;;;;5035233;28;20033;-85
2022/07/30 06:47:28;;;;;;;1.95;1.50;;;;;;;;;;5018130;28;20037;-84
2022/07/30 06:49:55;;;;;;;3.25;1.60;;;;;;;;;;5018030;28;20037;-85
2022/07/30 06:52:21;;;;;;;3.05;1.55;;;;;;;;;;5017954;28;20060;-85
2022/07/30 06:54:50;;;;;;;1.90;1.60;;;;;;;;;;5017514;28;20064;-84
2022/07/30 06:57:54;;;;;;;;;;;;;;;;;;5027441;28;20038;-84
2022/07/30 07:00:41;;;;;;;3.92;1.52;;;;;;;;;;5013363;28;19959;-84
2022/07/30 07:03:11;;;;;;;2.08;1.60;;;;;;;;;;5019178;28;20044;-86
2022/07/30 07:05:37;;;;;;;2.83;1.70;;;;;;;;;;5018242;28;20030;-85
2022/07/30 07:08:03;;;;;;;4.05;1.75;;;;;;;;;;5017620;28;20037;-84
2022/07/30 07:10:33;;;;;;;7.82;1.70;;;;;;;;;;5016334;28;20505;-84
2022/07/30 07:13:13;;;;;;;4.13;1.70;;;;;;;;;;5016845;28;20087;-84
2022/07/30 07:15:39;;;;;;;6.75;1.70;;;;;;;;;;5017186;28;20107;-84
2022/07/30 07:18:09;;;;;;;2.13;1.60;;;;;;;;;;5017400;28;20029;-83
2022/07/30 07:20:42;;;;;;;4.78;1.40;;;;;;;;;;5018309;28;20385;-84
2022/07/30 07:23:08;;;;;;;2.20;1.60;;;;;;;;;;5017163;28;20041;-83
2022/07/30 07:25:34;;;;;;;2.20;1.52;;;;;;;;;;5016496;28;20029;-83
2022/07/30 07:28:00;;;;;;;3.05;1.65;;;;;;;;;;5018038;28;20033;-83
2022/07/30 07:30:25;;;;;;;3.65;1.50;;;;;;;;;;5016993;28;20042;-82
2022/07/30 07:32:51;;;;;;;5.05;1.90;;;;;;;;;;5016730;28;20057;-82
2022/07/30 07:35:16;;;;;;;4.72;1.90;;;;;;;;;;5033889;28;20076;-83
2022/07/30 07:37:46;;;;;;;5.97;2.40;;;;;;;;;;5016878;28;20025;-83
2022/07/30 07:40:18;;;;;;;3.70;2.05;;;;;;;;;;5017128;28;20057;-82
2022/07/30 07:42:44;;;;;;;3.53;2.40;;;;;;;;;;5016763;28;20029;-83
2022/07/30 07:45:10;;;;;;;7.03;2.45;;;;;;;;;;5016111;28;20038;-83
2022/07/30 07:47:48;;;;;;;3.92;2.30;;;;;;;;;;5016180;28;20375;-82
2022/07/30 07:50:23;;;;;;;4.80;2.30;;;;;;;;;;5016747;28;20035;-82
2022/07/30 07:52:48;;;;;;;5.72;2.25;;;;;;;;;;5017979;28;20067;-81
2022/07/30 07:55:14;;;;;;;3.70;2.30;;;;;;;;;;5016489;28;20042;-83
2022/07/30 07:57:43;;;;;;;5.53;2.30;;;;;;;;;;5033966;28;20038;-80
2022/07/30 08:00:19;;;;;;;3.28;2.28;;;;;;;;;;5035152;28;20038;-82
2022/07/30 08:02:45;;;;;;;7.75;2.38;;;;;;;;;;5035050;28;20060;-82
2022/07/30 08:05:11;;;;;;;4.63;2.40;;;;;;;;;;5016513;28;20049;-82
2022/07/30 08:07:53;;;;;;;3.55;2.10;;;;;;;;;;5016903;28;20045;-82
2022/07/30 08:10:36;;;;;;;5.72;2.40;;;;;;;;;;5033342;28;20052;-83
2022/07/30 08:13:40;;;;;;;4.07;2.60;;;;;;;;;;4973974;28;20039;-82
2022/07/30 08:16:24;;;;;;;4.63;2.50;;;;;;;;;;4973597;28;20561;-82
2022/07/30 08:19:18;;;;;;;3.83;2.30;;;;;;;;;;5008021;28;20049;-82
2022/07/30 08:21:53;;;;;;;5.22;2.30;;;;;;;;;;5016637;28;20040;-82
2022/07/30 08:24:18;;;;;;;4.60;2.60;;;;;;;;;;5015738;28;20033;-82
2022/07/30 08:26:44;;;;;;;3.20;2.38;;;;;;;;;;5016469;28;20049;-83
2022/07/30 08:29:09;;;;;;;8.05;2.50;;;;;;;;;;5017097;28;20033;-82
2022/07/30 08:31:35;;;;;;;6.47;2.50;;;;;;;;;;5017294;28;20029;-82
2022/07/30 08:34:01;;;;;;;3.30;2.50;;;;;;;;;;5017373;28;20060;-82
2022/07/30 08:36:27;;;;;;;3.47;2.55;;;;;;;;;;5033315;28;20037;-83
2022/07/30 08:38:53;;;;;;;3.45;2.53;;;;;;;;;;5016544;28;20040;-83
2022/07/30 08:41:19;;;;;;;3.47;2.42;;;;;;;;;;5004009;28;20041;-82
2022/07/30 08:43:48;;;;;;;5.43;2.70;;;;;;;;;;5038437;28;20041;-83
2022/07/30 08:46:17;;;;;;;5.03;2.60;;;;;;;;;;5020871;28;20045;-84
2022/07/30 08:48:51;;;;;;;5.00;2.70;;;;;;;;;;5022219;28;20494;-83
2022/07/30 08:51:18;;;;;;;4.97;2.58;;;;;;;;;;5021962;28;20508;-83
2022/07/30 08:53:47;;;;;;;3.45;2.90;;;;;;;;;;5040155;28;20142;-84
2022/07/30 08:56:13;;;;;;;4.63;2.80;;;;;;;;;;5021374;28;20418;-83
2022/07/30 08:58:41;;;;;;;3.92;2.67;;;;;;;;;;5021487;28;20046;-83
2022/07/30 09:01:07;;;;;;;5.35;2.80;;;;;;;;;;5020628;28;20090;-83
2022/07/30 09:03:33;;;;;;;4.00;2.80;;;;;;;;;;5023115;28;20489;-85
2022/07/30 09:06:02;;;;;;;4.97;2.70;;;;;;;;;;5007841;28;20056;-85
2022/07/30 09:08:28;;;;;;;5.25;2.67;;;;;;;;;;5022642;28;20056;-85
2022/07/30 09:10:54;;;;;;;6.70;3.00;;;;;;;;;;5040394;28;20064;-84
2022/07/30 09:13:30;;;;;;;4.20;2.70;;;;;;;;;;5023292;28;20025;-85
2022/07/30 09:15:58;;;;;;;5.78;2.95;;;;;;;;;;5038135;28;20123;-85
2022/07/30 09:18:31;;;;;;;4.95;2.90;;;;;;;;;;5023155;28;20060;-84
2022/07/30 09:21:27;;;;;;;4.80;2.38;;;;;;;;;;5039602;28;20038;-84
2022/07/30 09:24:11;;;;;;;5.33;2.70;;;;;;;;;;5021738;28;20517;-85
2022/07/30 09:27:03;;;;;;;3.70;2.72;;;;;;;;;;5039641;28;20041;-85
2022/07/30 09:29:57;;;;;;;4.97;2.58;;;;;;;;;;5039481;28;20041;-85
2022/07/30 09:32:53;;;;;;;5.03;3.00;;;;;;;;;;5040590;28;20044;-85
2022/07/30 09:35:38;;;;;;;4.72;2.75;;;;;;;;;;5041685;28;20103;-85
2022/07/30 09:38:11;;;;;;;5.20;2.80;;;;;;;;;;5041647;28;20050;-85
2022/07/30 09:40:56;;;;;;;4.28;2.70;;;;;;;;;;5040887;28;20044;-85
2022/07/30 09:43:28;;;;;;;7.20;2.90;;;;;;;;;;5042926;28;20132;-84
2022/07/30 09:46:05;;;;;;;7.05;2.90;;;;;;;;;;5021043;28;20163;-85
2022/07/30 09:48:31;;;;;;;4.88;2.70;;;;;;;;;;5021256;28;20076;-85
2022/07/30 09:50:57;;;;;;;6.10;2.80;;;;;;;;;;5039325;28;20492;-85
2022/07/30 09:53:22;;;;;;;8.13;2.70;;;;;;;;;;5039739;28;20089;-85
2022/07/30 09:55:49;;;;;;;3.67;2.72;;;;;;;;;;5020543;28;20041;-85
2022/07/30 09:58:14;;;;;;;3.53;2.80;;;;;;;;;;5004145;28;20037;-85
2022/07/30 10:00:41;;;;;;;4.70;3.08;;;;;;;;;;5038650;28;20079;-85
2022/07/30 10:03:24;;;;;;;6.57;3.08;;;;;;;;;;5024691;28;20029;-85
2022/07/30 10:06:35;;;;;;;3.65;2.83;;;;;;;;;;5025509;28;20449;-83
2022/07/30 10:09:05;;;;;;;6.15;2.72;;;;;;;;;;5019486;28;20040;-85
2022/07/30 10:11:31;;;;;;;4.45;2.75;;;;;;;;;;5022442;28;20041;-85
2022/07/30 10:13:59;;;;;;;4.53;2.80;;;;;;;;;;5020373;28;20030;-84
2022/07/30 10:16:26;;;;;;;8.77;2.80;;;;;;;;;;5020667;28;20494;-86
2022/07/30 10:18:56;;;;;;;4.07;2.75;;;;;;;;;;5023204;28;20037;-87
2022/07/30 10:21:40;;;;;;;6.88;2.67;;;;;;;;;;5041397;28;20052;-86
2022/07/30 10:24:19;;;;;;;3.55;2.40;;;;;;;;;;5036798;28;20044;-85
2022/07/30 10:27:03;;;;;;;5.50;2.50;;;;;;;;;;5039765;28;20108;-88
2022/07/30 10:29:39;;;;;;;4.95;2.53;;;;;;;;;;5040535;28;20045;-83
2022/07/30 10:32:05;;;;;;;5.15;2.40;;;;;;;;;;5038607;28;20036;-86
2022/07/30 10:34:31;;;;;;;5.72;2.75;;;;;;;;;;5037961;28;20120;-86
2022/07/30 10:37:00;;;;;;;4.13;2.35;;;;;;;;;;5038884;28;20068;-85
2022/07/30 10:39:34;;;;;;;2.70;1.90;;;;;;;;;;5042451;28;20034;-86
2022/07/30 10:42:08;;;;;;;4.25;2.10;;;;;;;;;;5038559;28;20095;-85
2022/07/30 10:44:54;;;;;;;3.35;2.38;;;;;;;;;;5040207;28;20069;-86
2022/07/30 10:47:24;;;;;;;3.78;2.15;;;;;;;;;;5022446;28;20048;-86
2022/07/30 10:50:11;;;;;;;3.00;1.95;;;;;;;;;;5037459;28;20413;-86
2022/07/30 10:52:43;;;;;;;4.22;1.70;;;;;;;;;;5038018;28;20030;-86
2022/07/30 10:55:20;;;;;;;4.80;1.95;;;;;;;;;;5020141;28;20060;-87
2022/07/30 10:57:58;;;;;;;3.80;2.22;;;;;;;;;;5038063;28;20080;-86
2022/07/30 11:00:24;;;;;;;3.35;2.00;;;;;;;;;;5037457;28;20045;-87
2022/07/30 11:03:11;;;;;;;4.15;2.10;;;;;;;;;;5037289;28;20030;-87
2022/07/30 11:05:36;;;;;;;4.70;2.05;;;;;;;;;;5037083;28;20497;-86
2022/07/30 11:08:31;;;;;;;2.85;1.83;;;;;;;;;;5036585;28;20033;-86
2022/07/30 11:10:57;;;;;;;3.95;1.90;;;;;;;;;;5036859;28;20033;-90
2022/07/30 11:13:50;;;;;;;3.83;1.83;;;;;;;;;;5038335;28;20044;-86
2022/07/30 11:16:19;;;;;;;2.35;1.80;;;;;;;;;;5036740;28;20026;-86
2022/07/30 11:19:19;;;;;;;8.68;2.95;;;;;;;;;;5038185;28;20050;-85
2022/07/30 11:21:46;;;;;;;11.32;3.30;;;;;;;;;;4999774;28;20046;-85
2022/07/30 11:24:44;;;;;;;4.97;2.53;;;;;;;;;;5037980;28;20037;-86
2022/07/30 11:27:33;;;;;;;3.70;2.50;;;;;;;;;;5020070;28;20037;-87
2022/07/30 11:29:59;;;;;;;6.25;2.40;;;;;;;;;;5026868;28;20103;-86
2022/07/30 11:32:29;;;;;;;2.92;2.20;;;;;;;;;;5019009;28;20406;-86
2022/07/30 11:35:29;;;;;;;3.22;2.30;;;;;;;;;;5038492;28;20045;-86
2022/07/30 11:37:56;;;;;;;5.03;2.00;;;;;;;;;;5036541;28;20037;-84
2022/07/30 11:40:23;;;;;;;2.70;2.20;;;;;;;;;;5036157;28;20029;-86
2022/07/30 11:42:49;;;;;;;3.83;2.45;;;;;;;;;;5035834;28;20025;-86
2022/07/30 11:45:15;;;;;;;4.00;2.10;;;;;;;;;;5035382;28;20048;-85
2022/07/30 11:47:52;;;;;;;3.10;2.00;;;;;;;;;;5019248;28;20026;-85
2022/07/30 11:50:20;;;;;;;3.47;1.90;;;;;;;;;;5018897;28;20045;-85
2022/07/30 11:53:03;;;;;;;3.75;1.92;;;;;;;;;;5041876;28;20030;-86
2022/07/30 11:55:37;;;;;;;3.35;2.10;;;;;;;;;;5037357;28;20041;-86
2022/07/30 11:58:08;;;;;;;3.80;1.90;;;;;;;;;;5019618;28;20037;-84
2022/07/30 12:00:38;;;;;;;2.50;2.00;;;;;;;;;;5036744;28;20041;-86
2022/07/30 12:03:12;;;;;;;5.47;1.80;;;;;;;;;;5036414;28;20037;-85
2022/07/30 12:05:38;;;;;;;4.10;1.67;;;;;;;;;;5035430;28;20037;-85
2022/07/30 12:08:04;;;;;;;4.68;1.60;;;;;;;;;;5035471;28;20446;-85
2022/07/30 12:10:30;;;;;;;3.75;1.60;;;;;;;;;;5017235;28;20064;-85
2022/07/30 12:13:09;;;;;;;3.80;1.70;;;;;;;;;;5035918;28;20093;-84
2022/07/30 12:15:40;;;;;;;3.30;1.80;;;;;;;;;;5020906;28;20116;-85
2022/07/30 12:18:06;;;;;;;2.53;1.70;;;;;;;;;;5021771;28;20087;-86
2022/07/30 12:20:32;;;;;;;6.13;2.05;;;;;;;;;;5005484;28;20107;-83
2022/07/30 12:22:58;;;;;;;2.83;1.88;;;;;;;;;;5039860;28;20033;-84
2022/07/30 12:25:24;;;;;;;4.45;1.77;;;;;;;;;;5038377;28;20029;-87
2022/07/30 12:27:50;;;;;;;3.72;1.70;;;;;;;;;;5040154;28;20501;-85
2022/07/30 12:30:17;;;;;;;6.07;1.90;;;;;;;;;;5039694;28;20120;-87
2022/07/30 12:32:44;;;;;;;4.30;1.70;;;;;;;;;;5039929;28;20095;-88
2022/07/30 12:35:10;;;;;;;3.47;1.80;;;;;;;;;;5022295;28;20038;-87
2022/07/30 12:37:35;;;;;;;5.68;1.80;;;;;;;;;;5021106;28;20509;-86
2022/07/30 12:40:13;;;;;;;3.90;1.70;;;;;;;;;;5038804;28;20033;-87
2022/07/30 12:42:50;;;;;;;4.55;1.95;;;;;;;;;;5022390;28;20042;-86
2022/07/30 12:45:30;;;;;;;2.53;1.55;;;;;;;;;;5021714;28;20037;-83
2022/07/30 12:47:56;;;;;;;1.83;1.58;;;;;;;;;;5040875;28;20543;-84
2022/07/30 12:50:22;;;;;;;4.45;1.67;;;;;;;;;;5040920;28;20064;-86
2022/07/30 12:52:50;;;;;;;2.05;1.45;;;;;;;;;;5043141;28;20041;-88
2022/07/30 12:55:16;;;;;;;2.95;1.60;;;;;;;;;;5040279;28;20387;-86
2022/07/30 12:57:54;;;;;;;3.92;1.60;;;;;;;;;;5040142;28;20037;-87
2022/07/30 13:00:21;;;;;;;3.85;1.60;;;;;;;;;;5022438;28;20071;-88
2022/07/30 13:02:47;;;;;;;2.60;1.30;;;;;;;;;;5039670;28;20033;-88
2022/07/30 13:05:12;;;;;;;2.45;1.50;;;;;;;;;;5037897;28;20113;-87
2022/07/30 13:07:54;;;;;;;1.85;1.35;;;;;;;;;;5038141;28;20057;-89
2022/07/30 13:10:19;;;;;;;1.88;1.40;;;;;;;;;;5036478;28;20037;-89
2022/07/30 13:12:45;;;;;;;3.83;1.30;;;;;;;;;;5036485;28;20124;-89
2022/07/30 13:15:20;;;;;;;2.10;1.35;;;;;;;;;;5037373;28;20067;-87
2022/07/30 13:17:46;;;;;;;3.70;1.45;;;;;;;;;;5041454;28;20474;-89
2022/07/30 13:20:16;;;;;;;2.25;1.30;;;;;;;;;;5023196;28;20447;-88
2022/07/30 13:22:42;;;;;;;3.05;1.48;;;;;;;;;;5028719;28;20038;-86
2022/07/30 13:25:08;;;;;;;3.20;1.50;;;;;;;;;;5024007;28;20041;-88
2022/07/30 13:27:34;;;;;;;4.03;1.40;;;;;;;;;;5038117;28;20036;-82
2022/07/30 13:30:00;;;;;;;2.42;1.60;;;;;;;;;;5037149;28;20375;-84
2022/07/30 13:32:26;;;;;;;7.68;1.50;;;;;;;;;;5019700;28;20037;-83
2022/07/30 13:34:51;;;;;;;3.70;1.55;;;;;;;;;;5036148;28;20097;-83
2022/07/30 13:37:17;;;;;;;3.50;1.40;;;;;;;;;;5036806;28;20565;-84
2022/07/30 13:39:42;;;;;;;2.42;1.52;;;;;;;;;;5035961;28;20038;-83
2022/07/30 13:42:08;;;;;;;3.22;1.55;;;;;;;;;;5019163;28;20490;-83
2022/07/30 13:44:33;;;;;;;3.85;1.48;;;;;;;;;;5036275;28;20066;-81
2022/07/30 13:46:59;;;;;;;5.03;1.50;;;;;;;;;;5019153;28;20375;-85
2022/07/30 13:49:24;;;;;;;3.65;1.90;;;;;;;;;;5018895;28;20165;-85
2022/07/30 13:51:50;;;;;;;3.65;1.70;;;;;;;;;;5035588;28;20029;-85
2022/07/30 13:54:15;;;;;;;3.15;1.83;;;;;;;;;;5035473;28;20099;-85
2022/07/30 13:56:41;;;;;;;3.80;1.40;;;;;;;;;;5035733;28;20116;-84
2022/07/30 13:59:07;;;;;;;4.35;1.75;;;;;;;;;;5037515;28;20032;-84
2022/07/30 14:01:33;;;;;;;4.18;1.70;;;;;;;;;;5036303;28;20059;-85
2022/07/30 14:03:59;;;;;;;4.45;1.73;;;;;;;;;;5039432;28;20140;-83
2022/07/30 14:06:25;;;;;;;6.20;1.70;;;;;;;;;;5038071;28;20442;-81
2022/07/30 14:08:50;;;;;;;3.75;1.80;;;;;;;;;;5037502;28;20030;-84
2022/07/30 14:11:16;;;;;;;4.75;1.60;;;;;;;;;;5023652;28;20037;-83
2022/07/30 14:13:42;;;;;;;2.83;1.73;;;;;;;;;;5045712;28;20068;-82
2022/07/30 14:16:08;;;;;;;3.05;1.98;;;;;;;;;;5044675;28;20063;-82
2022/07/30 14:18:33;;;;;;;2.17;1.80;;;;;;;;;;5041329;28;20081;-82
2022/07/30 14:21:00;;;;;;;3.38;1.77;;;;;;;;;;5041155;28;20075;-88
2022/07/30 14:23:25;;;;;;;3.78;1.85;;;;;;;;;;5043607;28;20394;-88
2022/07/30 14:25:51;;;;;;;4.75;1.98;;;;;;;;;;5043505;28;20021;-88
2022/07/30 14:28:17;;;;;;;2.40;1.70;;;;;;;;;;5045643;28;20025;-89
2022/07/30 14:30:42;;;;;;;5.00;1.70;;;;;;;;;;5046474;28;20033;-88
2022/07/30 14:33:08;;;;;;;2.33;1.70;;;;;;;;;;5045468;28;20038;-88
2022/07/30 14:35:33;;;;;;;3.30;1.63;;;;;;;;;;5030101;28;20120;-88
2022/07/30 14:37:59;;;;;;;4.50;1.88;;;;;;;;;;5045618;28;20036;-87
2022/07/30 14:40:25;;;;;;;3.53;1.67;;;;;;;;;;5047065;28;20048;-87
2022/07/30 14:42:50;;;;;;;3.95;1.50;;;;;;;;;;5047000;28;20516;-88
2022/07/30 14:45:16;;;;;;;3.00;1.50;;;;;;;;;;5029829;28;20048;-89
2022/07/30 14:47:41;;;;;;;3.25;1.50;;;;;;;;;;5041826;28;20074;-90
2022/07/30 14:50:08;;;;;;;3.58;1.52;;;;;;;;;;5036081;28;20053;-87
2022/07/30 14:52:37;;;;;;;2.10;1.50;;;;;;;;;;5023266;28;20041;-86
2022/07/30 14:55:07;;;;;;;2.38;1.50;;;;;;;;;;5051682;28;20051;-87
2022/07/30 14:57:33;;;;;;;2.65;1.75;;;;;;;;;;5049634;28;20082;-87
2022/07/30 14:59:58;;;;;;;3.17;1.60;;;;;;;;;;5033992;28;20025;-86
2022/07/30 15:02:24;;;;;;;3.10;1.63;;;;;;;;;;5053133;28;20087;-86
2022/07/30 15:04:50;;;;;;;4.10;1.63;;;;;;;;;;5051961;28;20095;-86
2022/07/30 15:07:15;;;;;;;2.70;1.60;;;;;;;;;;5053252;28;20033;-86